Impacts TAF Board INFO
FOR SITUATIONAL AWARENESS. NOT TO BE USED FOR FLIGHT PLANNING PURPOSES.
IDs:

KLAX - Los Angeles Intl, CA, US

Issued at 2333 UTC 29 Mar 2017
Updated at 0052 UTC 30 Mar 2017
Potential Impact None Slight Moderate High
Time2353Z 30/01Z 30/02Z 30/03Z 30/04Z 30/05Z 30/06Z 30/07Z 30/08Z 30/09Z 30/10Z 30/11Z 30/12Z 30/13Z
Type OBS PRVL PRVL PRVL PRVL PRVL PRVL PRVL PRVL PRVL PRVL PRVL PRVL PRVL
VIS 10 >6 >6 >6 >6 >6 >6 >6 >6 >6 >6 >6 >6 >6
CIG -- -- -- -- -- -- -- -- -- -- -- -- -- --
Cover FEW SKC SKC SKC SKC SKC SKC SKC SKC SKC SKC SKC SKC SKC
FltCat VFR VFR VFR VFR VFR VFR VFR VFR VFR VFR VFR VFR VFR VFR
WX -- -- -- -- -- -- -- -- -- -- -- -- -- --
WDir 270 250 250 260 260 260 VRB VRB VRB VRB VRB VRB VRB VRB
WSpd 12 11 11 7 7 7 3 3 3 3 3 3 3 3
WGst -- -- -- -- -- -- -- -- -- -- -- -- -- --

Raw TAF
KLAX 292333Z 3000/3106 25011KT P6SM SKC
  FM300300 26007KT P6SM SKC
  FM300600 VRB03KT P6SM SKC
  FM301800 24008KT P6SM SCT250
  FM302000 26013KT P6SM SCT250
  FM302300 27017G24KT P6SM BKN250
  FM310300 32011KT P6SM SCT250


Raw METAR
KLAX 292353Z 27012KT 10SM FEW200 FEW250 22/09 A3000 RMK AO2 SLP157 T02170089 10239 20206 56014
KLAX 292253Z 25010KT 10SM FEW200 FEW250 23/07 A3001 RMK AO2 SLP161 T02280072
KLAX 292153Z 24008KT 10SM SCT250 23/08 A3001 RMK AO2 SLP162 T02330078

METAR Board
Radar Display
Forecast Discussion

FOR SITUATIONAL AWARENESS. NOT TO BE USED FOR FLIGHT PLANNING PURPOSES.

Page loaded:  00:52 UTC  |   05:52 PM Pacific  |   06:52 PM Mountain  |   07:52 PM Central  |   08:52 PM Eastern

 

ADVISORIES

FORECASTS

FORECASTS

OBSERVATIONS

USER TOOLS

ABOUT US